sensor_id;sensor_type;location;lat;lon;timestamp;P1;durP1;ratioP1;P2;durP2;ratioP2
28774;SDS011;15926;51.348;6.596;2023-02-22T00:01:09;82.03;;;28.38;;
28774;SDS011;15926;51.348;6.596;2023-02-22T00:03:43;90.63;;;30.10;;
28774;SDS011;15926;51.348;6.596;2023-02-22T00:06:14;88.68;;;28.95;;
28774;SDS011;15926;51.348;6.596;2023-02-22T00:08:41;90.05;;;29.15;;
28774;SDS011;15926;51.348;6.596;2023-02-22T00:11:07;80.65;;;27.88;;
28774;SDS011;15926;51.348;6.596;2023-02-22T00:13:33;88.05;;;30.00;;
28774;SDS011;15926;51.348;6.596;2023-02-22T00:15:59;87.40;;;30.02;;
28774;SDS011;15926;51.348;6.596;2023-02-22T00:18:26;82.43;;;29.42;;
28774;SDS011;15926;51.348;6.596;2023-02-22T00:20:53;78.97;;;27.83;;
28774;SDS011;15926;51.348;6.596;2023-02-22T00:23:20;82.70;;;28.42;;
28774;SDS011;15926;51.348;6.596;2023-02-22T00:25:49;90.15;;;29.67;;
28774;SDS011;15926;51.348;6.596;2023-02-22T00:30:41;93.40;;;30.50;;
28774;SDS011;15926;51.348;6.596;2023-02-22T00:33:08;93.15;;;28.75;;
28774;SDS011;15926;51.348;6.596;2023-02-22T00:35:34;97.40;;;28.65;;
28774;SDS011;15926;51.348;6.596;2023-02-22T00:38:00;93.53;;;28.83;;
28774;SDS011;15926;51.348;6.596;2023-02-22T00:40:31;93.68;;;28.52;;
28774;SDS011;15926;51.348;6.596;2023-02-22T00:42:58;95.13;;;29.70;;
28774;SDS011;15926;51.348;6.596;2023-02-22T00:45:25;89.22;;;27.20;;
28774;SDS011;15926;51.348;6.596;2023-02-22T00:47:51;90.28;;;27.48;;
28774;SDS011;15926;51.348;6.596;2023-02-22T00:50:19;90.25;;;26.98;;
28774;SDS011;15926;51.348;6.596;2023-02-22T00:52:46;98.40;;;30.25;;
28774;SDS011;15926;51.348;6.596;2023-02-22T00:55:16;104.20;;;30.10;;
28774;SDS011;15926;51.348;6.596;2023-02-22T00:57:42;104.93;;;31.35;;
28774;SDS011;15926;51.348;6.596;2023-02-22T01:00:13;98.40;;;30.88;;
28774;SDS011;15926;51.348;6.596;2023-02-22T01:02:40;109.00;;;30.08;;
28774;SDS011;15926;51.348;6.596;2023-02-22T01:05:07;105.75;;;29.85;;
28774;SDS011;15926;51.348;6.596;2023-02-22T01:07:34;106.20;;;30.27;;
28774;SDS011;15926;51.348;6.596;2023-02-22T01:10:00;94.43;;;29.58;;
28774;SDS011;15926;51.348;6.596;2023-02-22T01:12:27;102.35;;;29.52;;
28774;SDS011;15926;51.348;6.596;2023-02-22T01:14:53;100.82;;;30.42;;
28774;SDS011;15926;51.348;6.596;2023-02-22T01:17:23;109.10;;;29.58;;
28774;SDS011;15926;51.348;6.596;2023-02-22T01:19:49;100.82;;;29.48;;
28774;SDS011;15926;51.348;6.596;2023-02-22T01:22:15;103.22;;;30.65;;
28774;SDS011;15926;51.348;6.596;2023-02-22T01:24:41;114.53;;;31.85;;
28774;SDS011;15926;51.348;6.596;2023-02-22T01:27:07;112.05;;;30.05;;
28774;SDS011;15926;51.348;6.596;2023-02-22T01:29:34;119.60;;;32.10;;
28774;SDS011;15926;51.348;6.596;2023-02-22T01:32:01;117.35;;;33.28;;
28774;SDS011;15926;51.348;6.596;2023-02-22T01:34:27;119.45;;;31.98;;
28774;SDS011;15926;51.348;6.596;2023-02-22T01:36:54;108.65;;;31.27;;
28774;SDS011;15926;51.348;6.596;2023-02-22T01:39:20;120.55;;;30.05;;
28774;SDS011;15926;51.348;6.596;2023-02-22T01:41:46;115.10;;;29.63;;
28774;SDS011;15926;51.348;6.596;2023-02-22T01:46:44;111.22;;;30.98;;
28774;SDS011;15926;51.348;6.596;2023-02-22T01:49:10;118.05;;;31.23;;
28774;SDS011;15926;51.348;6.596;2023-02-22T01:51:39;121.80;;;31.38;;
28774;SDS011;15926;51.348;6.596;2023-02-22T01:54:06;113.03;;;31.58;;
28774;SDS011;15926;51.348;6.596;2023-02-22T01:59:02;120.15;;;29.25;;
28774;SDS011;15926;51.348;6.596;2023-02-22T02:01:30;124.20;;;32.20;;
28774;SDS011;15926;51.348;6.596;2023-02-22T02:03:58;126.88;;;33.00;;
28774;SDS011;15926;51.348;6.596;2023-02-22T02:06:26;136.80;;;31.87;;
28774;SDS011;15926;51.348;6.596;2023-02-22T02:11:27;117.57;;;30.08;;
28774;SDS011;15926;51.348;6.596;2023-02-22T02:13:54;121.72;;;31.70;;
28774;SDS011;15926;51.348;6.596;2023-02-22T02:16:22;121.63;;;32.28;;
28774;SDS011;15926;51.348;6.596;2023-02-22T02:18:49;127.65;;;31.70;;
28774;SDS011;15926;51.348;6.596;2023-02-22T02:21:33;129.75;;;31.95;;
28774;SDS011;15926;51.348;6.596;2023-02-22T02:29:44;123.32;;;30.10;;
28774;SDS011;15926;51.348;6.596;2023-02-22T02:37:11;109.00;;;29.25;;
28774;SDS011;15926;51.348;6.596;2023-02-22T02:39:45;125.75;;;29.52;;
28774;SDS011;15926;51.348;6.596;2023-02-22T02:42:13;103.80;;;27.00;;
28774;SDS011;15926;51.348;6.596;2023-02-22T02:47:12;112.05;;;27.17;;
28774;SDS011;15926;51.348;6.596;2023-02-22T02:49:40;99.10;;;29.35;;
28774;SDS011;15926;51.348;6.596;2023-02-22T02:52:09;123.47;;;25.85;;
28774;SDS011;15926;51.348;6.596;2023-02-22T02:54:37;95.20;;;25.75;;
28774;SDS011;15926;51.348;6.596;2023-02-22T02:57:03;99.40;;;26.40;;
28774;SDS011;15926;51.348;6.596;2023-02-22T02:59:31;110.28;;;27.98;;
28774;SDS011;15926;51.348;6.596;2023-02-22T03:04:51;98.57;;;23.75;;
28774;SDS011;15926;51.348;6.596;2023-02-22T03:12:30;99.72;;;27.15;;
28774;SDS011;15926;51.348;6.596;2023-02-22T03:15:06;99.63;;;25.45;;
28774;SDS011;15926;51.348;6.596;2023-02-22T03:17:46;87.80;;;24.70;;
28774;SDS011;15926;51.348;6.596;2023-02-22T03:23:02;97.50;;;22.55;;
28774;SDS011;15926;51.348;6.596;2023-02-22T03:25:32;89.70;;;23.25;;
28774;SDS011;15926;51.348;6.596;2023-02-22T03:27:59;96.10;;;25.40;;
28774;SDS011;15926;51.348;6.596;2023-02-22T03:30:37;109.22;;;26.70;;
28774;SDS011;15926;51.348;6.596;2023-02-22T03:33:05;104.95;;;24.92;;
28774;SDS011;15926;51.348;6.596;2023-02-22T03:35:34;108.55;;;24.63;;
28774;SDS011;15926;51.348;6.596;2023-02-22T03:38:01;105.32;;;24.98;;
28774;SDS011;15926;51.348;6.596;2023-02-22T03:40:39;114.00;;;26.83;;
28774;SDS011;15926;51.348;6.596;2023-02-22T03:43:08;102.43;;;25.73;;
28774;SDS011;15926;51.348;6.596;2023-02-22T03:45:35;117.68;;;27.63;;
28774;SDS011;15926;51.348;6.596;2023-02-22T03:48:03;102.95;;;25.45;;
28774;SDS011;15926;51.348;6.596;2023-02-22T03:50:35;100.13;;;25.17;;
28774;SDS011;15926;51.348;6.596;2023-02-22T03:53:01;85.90;;;24.48;;
28774;SDS011;15926;51.348;6.596;2023-02-22T03:55:27;87.45;;;23.33;;
28774;SDS011;15926;51.348;6.596;2023-02-22T03:57:56;82.20;;;22.40;;
28774;SDS011;15926;51.348;6.596;2023-02-22T04:00:24;83.22;;;21.45;;
28774;SDS011;15926;51.348;6.596;2023-02-22T04:02:50;68.45;;;19.02;;
28774;SDS011;15926;51.348;6.596;2023-02-22T04:05:17;72.18;;;19.30;;
28774;SDS011;15926;51.348;6.596;2023-02-22T04:07:43;65.38;;;19.45;;
28774;SDS011;15926;51.348;6.596;2023-02-22T04:10:09;66.80;;;18.70;;
28774;SDS011;15926;51.348;6.596;2023-02-22T04:12:36;72.72;;;20.08;;
28774;SDS011;15926;51.348;6.596;2023-02-22T04:15:02;62.28;;;17.17;;
28774;SDS011;15926;51.348;6.596;2023-02-22T04:17:28;55.22;;;16.88;;
28774;SDS011;15926;51.348;6.596;2023-02-22T04:19:55;61.83;;;17.45;;
28774;SDS011;15926;51.348;6.596;2023-02-22T04:22:21;62.13;;;19.75;;
28774;SDS011;15926;51.348;6.596;2023-02-22T04:24:47;53.85;;;17.40;;
28774;SDS011;15926;51.348;6.596;2023-02-22T04:27:13;62.78;;;18.25;;
28774;SDS011;15926;51.348;6.596;2023-02-22T04:29:39;63.13;;;18.90;;
28774;SDS011;15926;51.348;6.596;2023-02-22T04:32:05;60.00;;;19.40;;
28774;SDS011;15926;51.348;6.596;2023-02-22T04:34:31;63.72;;;19.27;;
28774;SDS011;15926;51.348;6.596;2023-02-22T04:36:57;63.72;;;18.90;;
28774;SDS011;15926;51.348;6.596;2023-02-22T04:39:23;58.00;;;18.02;;
28774;SDS011;15926;51.348;6.596;2023-02-22T04:41:49;57.70;;;18.80;;
28774;SDS011;15926;51.348;6.596;2023-02-22T04:44:15;54.70;;;17.65;;
28774;SDS011;15926;51.348;6.596;2023-02-22T04:46:41;58.28;;;18.30;;
28774;SDS011;15926;51.348;6.596;2023-02-22T04:49:07;65.25;;;19.77;;
28774;SDS011;15926;51.348;6.596;2023-02-22T04:51:33;62.50;;;19.80;;
28774;SDS011;15926;51.348;6.596;2023-02-22T04:54:00;56.42;;;17.73;;
28774;SDS011;15926;51.348;6.596;2023-02-22T04:56:26;59.85;;;18.33;;
28774;SDS011;15926;51.348;6.596;2023-02-22T04:58:52;66.10;;;19.73;;
28774;SDS011;15926;51.348;6.596;2023-02-22T05:01:18;63.15;;;19.45;;
28774;SDS011;15926;51.348;6.596;2023-02-22T05:03:44;63.40;;;20.02;;
28774;SDS011;15926;51.348;6.596;2023-02-22T05:06:10;65.00;;;19.13;;
28774;SDS011;15926;51.348;6.596;2023-02-22T05:08:37;65.35;;;21.15;;
28774;SDS011;15926;51.348;6.596;2023-02-22T05:11:03;60.85;;;19.15;;
28774;SDS011;15926;51.348;6.596;2023-02-22T05:13:29;68.90;;;20.45;;
28774;SDS011;15926;51.348;6.596;2023-02-22T05:15:55;66.40;;;19.45;;
28774;SDS011;15926;51.348;6.596;2023-02-22T05:18:22;56.30;;;18.25;;
28774;SDS011;15926;51.348;6.596;2023-02-22T05:20:48;69.32;;;19.98;;
28774;SDS011;15926;51.348;6.596;2023-02-22T05:23:14;64.80;;;20.25;;
28774;SDS011;15926;51.348;6.596;2023-02-22T05:25:40;68.90;;;19.20;;
28774;SDS011;15926;51.348;6.596;2023-02-22T05:28:15;71.15;;;20.42;;
28774;SDS011;15926;51.348;6.596;2023-02-22T05:30:41;75.88;;;22.30;;
28774;SDS011;15926;51.348;6.596;2023-02-22T05:33:07;69.88;;;20.85;;
28774;SDS011;15926;51.348;6.596;2023-02-22T05:35:33;65.05;;;20.40;;
28774;SDS011;15926;51.348;6.596;2023-02-22T05:38:01;77.45;;;20.77;;
28774;SDS011;15926;51.348;6.596;2023-02-22T05:40:28;68.05;;;21.48;;
28774;SDS011;15926;51.348;6.596;2023-02-22T05:42:54;66.05;;;21.85;;
28774;SDS011;15926;51.348;6.596;2023-02-22T05:45:21;64.78;;;21.52;;
28774;SDS011;15926;51.348;6.596;2023-02-22T05:47:48;60.50;;;21.08;;
28774;SDS011;15926;51.348;6.596;2023-02-22T05:50:15;62.80;;;21.05;;
28774;SDS011;15926;51.348;6.596;2023-02-22T05:52:41;60.03;;;20.05;;
28774;SDS011;15926;51.348;6.596;2023-02-22T05:55:08;63.67;;;20.77;;
28774;SDS011;15926;51.348;6.596;2023-02-22T05:57:34;71.63;;;21.35;;
28774;SDS011;15926;51.348;6.596;2023-02-22T06:00:01;69.75;;;22.58;;
28774;SDS011;15926;51.348;6.596;2023-02-22T06:02:28;66.03;;;21.88;;
28774;SDS011;15926;51.348;6.596;2023-02-22T06:04:54;56.03;;;19.75;;
28774;SDS011;15926;51.348;6.596;2023-02-22T06:07:20;75.07;;;22.73;;
28774;SDS011;15926;51.348;6.596;2023-02-22T06:09:46;75.82;;;21.02;;
28774;SDS011;15926;51.348;6.596;2023-02-22T06:12:12;67.47;;;20.95;;
28774;SDS011;15926;51.348;6.596;2023-02-22T06:14:38;65.93;;;21.38;;
28774;SDS011;15926;51.348;6.596;2023-02-22T06:17:09;63.25;;;20.48;;
28774;SDS011;15926;51.348;6.596;2023-02-22T06:19:35;60.88;;;22.73;;
28774;SDS011;15926;51.348;6.596;2023-02-22T06:22:01;72.82;;;21.13;;
28774;SDS011;15926;51.348;6.596;2023-02-22T06:24:27;64.63;;;21.85;;
28774;SDS011;15926;51.348;6.596;2023-02-22T06:26:54;64.13;;;22.48;;
28774;SDS011;15926;51.348;6.596;2023-02-22T06:29:21;75.38;;;22.10;;
28774;SDS011;15926;51.348;6.596;2023-02-22T06:31:47;72.03;;;23.38;;
28774;SDS011;15926;51.348;6.596;2023-02-22T06:34:13;59.00;;;22.02;;
28774;SDS011;15926;51.348;6.596;2023-02-22T06:36:40;73.82;;;22.77;;
28774;SDS011;15926;51.348;6.596;2023-02-22T06:39:06;61.38;;;20.90;;
28774;SDS011;15926;51.348;6.596;2023-02-22T06:41:38;66.93;;;22.10;;
28774;SDS011;15926;51.348;6.596;2023-02-22T06:44:04;63.45;;;22.42;;
28774;SDS011;15926;51.348;6.596;2023-02-22T06:46:30;74.35;;;24.17;;
28774;SDS011;15926;51.348;6.596;2023-02-22T06:48:57;66.63;;;22.25;;
28774;SDS011;15926;51.348;6.596;2023-02-22T06:51:26;75.45;;;24.08;;
28774;SDS011;15926;51.348;6.596;2023-02-22T06:53:52;70.50;;;23.15;;
28774;SDS011;15926;51.348;6.596;2023-02-22T06:56:21;68.25;;;24.27;;
28774;SDS011;15926;51.348;6.596;2023-02-22T06:58:50;72.80;;;22.67;;
28774;SDS011;15926;51.348;6.596;2023-02-22T07:01:17;75.75;;;23.60;;
28774;SDS011;15926;51.348;6.596;2023-02-22T07:03:43;73.05;;;24.65;;
28774;SDS011;15926;51.348;6.596;2023-02-22T07:06:09;75.30;;;24.15;;
28774;SDS011;15926;51.348;6.596;2023-02-22T07:08:35;78.28;;;24.85;;
28774;SDS011;15926;51.348;6.596;2023-02-22T07:11:02;77.38;;;25.75;;
28774;SDS011;15926;51.348;6.596;2023-02-22T07:13:28;70.18;;;24.88;;
28774;SDS011;15926;51.348;6.596;2023-02-22T07:15:54;78.85;;;26.77;;
28774;SDS011;15926;51.348;6.596;2023-02-22T07:18:20;77.28;;;24.90;;
28774;SDS011;15926;51.348;6.596;2023-02-22T07:20:46;80.47;;;27.60;;
28774;SDS011;15926;51.348;6.596;2023-02-22T07:23:13;80.72;;;27.92;;
28774;SDS011;15926;51.348;6.596;2023-02-22T07:25:39;75.38;;;26.95;;
28774;SDS011;15926;51.348;6.596;2023-02-22T07:28:05;82.25;;;28.08;;
28774;SDS011;15926;51.348;6.596;2023-02-22T07:30:32;75.57;;;27.60;;
28774;SDS011;15926;51.348;6.596;2023-02-22T07:32:59;83.78;;;28.20;;
28774;SDS011;15926;51.348;6.596;2023-02-22T07:35:27;70.35;;;26.65;;
28774;SDS011;15926;51.348;6.596;2023-02-22T07:37:53;77.63;;;27.63;;
28774;SDS011;15926;51.348;6.596;2023-02-22T07:40:20;64.47;;;26.77;;
28774;SDS011;15926;51.348;6.596;2023-02-22T07:42:56;69.18;;;25.60;;
28774;SDS011;15926;51.348;6.596;2023-02-22T07:45:24;67.38;;;25.27;;
28774;SDS011;15926;51.348;6.596;2023-02-22T07:47:50;59.25;;;25.92;;
28774;SDS011;15926;51.348;6.596;2023-02-22T07:50:17;66.15;;;26.60;;
28774;SDS011;15926;51.348;6.596;2023-02-22T07:52:47;78.07;;;27.45;;
28774;SDS011;15926;51.348;6.596;2023-02-22T07:55:15;64.63;;;26.77;;
28774;SDS011;15926;51.348;6.596;2023-02-22T07:57:42;60.45;;;24.98;;
28774;SDS011;15926;51.348;6.596;2023-02-22T08:00:08;54.03;;;24.25;;
28774;SDS011;15926;51.348;6.596;2023-02-22T08:02:34;54.72;;;24.67;;
28774;SDS011;15926;51.348;6.596;2023-02-22T08:05:00;58.15;;;24.73;;
28774;SDS011;15926;51.348;6.596;2023-02-22T08:07:26;59.50;;;24.15;;
28774;SDS011;15926;51.348;6.596;2023-02-22T08:09:52;51.17;;;22.95;;
28774;SDS011;15926;51.348;6.596;2023-02-22T08:12:18;54.67;;;23.92;;
28774;SDS011;15926;51.348;6.596;2023-02-22T08:14:44;50.22;;;23.42;;
28774;SDS011;15926;51.348;6.596;2023-02-22T08:17:10;46.53;;;22.05;;
28774;SDS011;15926;51.348;6.596;2023-02-22T08:19:36;44.90;;;21.38;;
28774;SDS011;15926;51.348;6.596;2023-02-22T08:22:03;42.13;;;19.50;;
28774;SDS011;15926;51.348;6.596;2023-02-22T08:24:29;45.85;;;20.67;;
28774;SDS011;15926;51.348;6.596;2023-02-22T08:26:56;40.22;;;19.02;;
28774;SDS011;15926;51.348;6.596;2023-02-22T08:29:22;40.65;;;19.30;;
28774;SDS011;15926;51.348;6.596;2023-02-22T08:31:51;41.58;;;19.77;;
28774;SDS011;15926;51.348;6.596;2023-02-22T08:34:18;39.22;;;19.92;;
28774;SDS011;15926;51.348;6.596;2023-02-22T08:36:44;37.40;;;18.73;;
28774;SDS011;15926;51.348;6.596;2023-02-22T08:39:10;35.17;;;18.60;;
28774;SDS011;15926;51.348;6.596;2023-02-22T08:41:37;38.63;;;17.50;;
28774;SDS011;15926;51.348;6.596;2023-02-22T08:44:03;35.38;;;18.27;;
28774;SDS011;15926;51.348;6.596;2023-02-22T08:46:29;32.58;;;17.33;;
28774;SDS011;15926;51.348;6.596;2023-02-22T08:48:55;33.05;;;17.33;;
28774;SDS011;15926;51.348;6.596;2023-02-22T08:51:21;33.25;;;17.38;;
28774;SDS011;15926;51.348;6.596;2023-02-22T08:53:47;34.67;;;17.88;;
28774;SDS011;15926;51.348;6.596;2023-02-22T08:56:13;28.95;;;16.10;;
28774;SDS011;15926;51.348;6.596;2023-02-22T08:58:40;26.65;;;15.95;;
28774;SDS011;15926;51.348;6.596;2023-02-22T09:01:06;27.13;;;15.68;;
28774;SDS011;15926;51.348;6.596;2023-02-22T09:03:33;28.10;;;15.70;;
28774;SDS011;15926;51.348;6.596;2023-02-22T09:05:59;26.55;;;14.63;;
28774;SDS011;15926;51.348;6.596;2023-02-22T09:08:25;29.63;;;15.48;;
28774;SDS011;15926;51.348;6.596;2023-02-22T09:10:52;24.55;;;14.35;;
28774;SDS011;15926;51.348;6.596;2023-02-22T09:13:18;25.77;;;14.52;;
28774;SDS011;15926;51.348;6.596;2023-02-22T09:15:44;26.20;;;14.13;;
28774;SDS011;15926;51.348;6.596;2023-02-22T09:18:11;23.55;;;13.07;;
28774;SDS011;15926;51.348;6.596;2023-02-22T09:20:42;27.70;;;15.15;;
28774;SDS011;15926;51.348;6.596;2023-02-22T09:23:08;25.27;;;13.93;;
28774;SDS011;15926;51.348;6.596;2023-02-22T09:25:34;24.00;;;14.20;;
28774;SDS011;15926;51.348;6.596;2023-02-22T09:28:02;21.42;;;14.55;;
28774;SDS011;15926;51.348;6.596;2023-02-22T09:30:31;26.50;;;14.35;;
28774;SDS011;15926;51.348;6.596;2023-02-22T09:32:59;24.67;;;14.20;;
28774;SDS011;15926;51.348;6.596;2023-02-22T09:35:26;23.38;;;14.27;;
28774;SDS011;15926;51.348;6.596;2023-02-22T09:37:52;24.05;;;13.45;;
28774;SDS011;15926;51.348;6.596;2023-02-22T09:40:19;26.10;;;14.90;;
28774;SDS011;15926;51.348;6.596;2023-02-22T09:42:55;29.48;;;14.93;;
28774;SDS011;15926;51.348;6.596;2023-02-22T09:45:26;21.25;;;13.80;;
28774;SDS011;15926;51.348;6.596;2023-02-22T09:47:56;23.73;;;14.25;;
28774;SDS011;15926;51.348;6.596;2023-02-22T09:50:30;27.03;;;14.53;;
28774;SDS011;15926;51.348;6.596;2023-02-22T09:53:02;32.80;;;15.55;;
28774;SDS011;15926;51.348;6.596;2023-02-22T09:57:58;26.77;;;15.07;;
28774;SDS011;15926;51.348;6.596;2023-02-22T10:00:32;49.17;;;27.67;;
28774;SDS011;15926;51.348;6.596;2023-02-22T10:05:36;53.55;;;30.88;;
28774;SDS011;15926;51.348;6.596;2023-02-22T10:08:04;62.65;;;32.08;;
28774;SDS011;15926;51.348;6.596;2023-02-22T10:10:31;22.48;;;14.65;;
28774;SDS011;15926;51.348;6.596;2023-02-22T10:25:51;19.88;;;12.18;;
28774;SDS011;15926;51.348;6.596;2023-02-22T10:28:26;20.67;;;12.10;;
28774;SDS011;15926;51.348;6.596;2023-02-22T10:31:01;18.05;;;11.95;;
28774;SDS011;15926;51.348;6.596;2023-02-22T10:33:47;16.70;;;11.63;;
28774;SDS011;15926;51.348;6.596;2023-02-22T10:36:15;21.58;;;13.02;;
28774;SDS011;15926;51.348;6.596;2023-02-22T10:38:44;20.75;;;11.77;;
28774;SDS011;15926;51.348;6.596;2023-02-22T10:41:21;19.80;;;12.27;;
28774;SDS011;15926;51.348;6.596;2023-02-22T10:43:49;19.73;;;12.45;;
28774;SDS011;15926;51.348;6.596;2023-02-22T10:46:16;23.90;;;12.35;;
28774;SDS011;15926;51.348;6.596;2023-02-22T10:48:44;22.77;;;12.95;;
28774;SDS011;15926;51.348;6.596;2023-02-22T10:51:11;21.00;;;11.98;;
28774;SDS011;15926;51.348;6.596;2023-02-22T10:53:37;18.55;;;12.02;;
28774;SDS011;15926;51.348;6.596;2023-02-22T10:58:42;21.10;;;11.70;;
28774;SDS011;15926;51.348;6.596;2023-02-22T11:06:39;20.10;;;11.63;;
28774;SDS011;15926;51.348;6.596;2023-02-22T11:09:16;16.58;;;9.80;;
28774;SDS011;15926;51.348;6.596;2023-02-22T11:11:44;14.90;;;10.60;;
28774;SDS011;15926;51.348;6.596;2023-02-22T11:14:10;19.65;;;10.57;;
28774;SDS011;15926;51.348;6.596;2023-02-22T11:21:32;18.45;;;9.88;;
28774;SDS011;15926;51.348;6.596;2023-02-22T11:24:03;19.02;;;10.77;;
28774;SDS011;15926;51.348;6.596;2023-02-22T11:26:35;20.25;;;10.35;;
28774;SDS011;15926;51.348;6.596;2023-02-22T11:29:04;17.67;;;10.45;;
28774;SDS011;15926;51.348;6.596;2023-02-22T11:31:34;16.27;;;9.63;;
28774;SDS011;15926;51.348;6.596;2023-02-22T11:34:06;16.40;;;9.50;;
28774;SDS011;15926;51.348;6.596;2023-02-22T11:39:01;14.30;;;9.55;;
28774;SDS011;15926;51.348;6.596;2023-02-22T11:41:32;16.67;;;9.73;;
28774;SDS011;15926;51.348;6.596;2023-02-22T11:46:38;13.83;;;9.70;;
28774;SDS011;15926;51.348;6.596;2023-02-22T11:49:08;16.65;;;9.88;;
28774;SDS011;15926;51.348;6.596;2023-02-22T11:51:49;13.32;;;9.10;;
28774;SDS011;15926;51.348;6.596;2023-02-22T11:54:22;13.90;;;9.55;;
28774;SDS011;15926;51.348;6.596;2023-02-22T11:57:39;12.82;;;8.45;;
28774;SDS011;15926;51.348;6.596;2023-02-22T12:05:11;14.90;;;8.52;;
28774;SDS011;15926;51.348;6.596;2023-02-22T12:07:55;14.25;;;8.52;;
28774;SDS011;15926;51.348;6.596;2023-02-22T12:15:58;11.23;;;7.60;;
28774;SDS011;15926;51.348;6.596;2023-02-22T12:18:49;9.65;;;7.15;;
28774;SDS011;15926;51.348;6.596;2023-02-22T12:21:19;10.95;;;7.70;;
28774;SDS011;15926;51.348;6.596;2023-02-22T12:23:49;12.80;;;8.30;;
28774;SDS011;15926;51.348;6.596;2023-02-22T12:26:24;9.15;;;7.22;;
28774;SDS011;15926;51.348;6.596;2023-02-22T12:28:56;13.27;;;7.83;;
28774;SDS011;15926;51.348;6.596;2023-02-22T12:31:34;11.25;;;7.43;;
28774;SDS011;15926;51.348;6.596;2023-02-22T12:37:03;12.20;;;8.15;;
28774;SDS011;15926;51.348;6.596;2023-02-22T12:42:17;13.05;;;7.55;;
28774;SDS011;15926;51.348;6.596;2023-02-22T12:44:46;10.30;;;7.13;;
28774;SDS011;15926;51.348;6.596;2023-02-22T12:47:18;10.80;;;7.80;;
28774;SDS011;15926;51.348;6.596;2023-02-22T12:52:33;11.10;;;7.20;;
28774;SDS011;15926;51.348;6.596;2023-02-22T12:55:24;11.15;;;7.15;;
28774;SDS011;15926;51.348;6.596;2023-02-22T12:58:08;10.20;;;6.57;;
28774;SDS011;15926;51.348;6.596;2023-02-22T13:00:38;8.85;;;6.10;;
28774;SDS011;15926;51.348;6.596;2023-02-22T13:05:54;12.65;;;6.30;;
28774;SDS011;15926;51.348;6.596;2023-02-22T13:08:27;9.15;;;6.30;;
28774;SDS011;15926;51.348;6.596;2023-02-22T13:18:41;10.13;;;6.63;;
28774;SDS011;15926;51.348;6.596;2023-02-22T13:21:14;7.70;;;6.72;;
28774;SDS011;15926;51.348;6.596;2023-02-22T13:23:56;9.75;;;7.63;;
28774;SDS011;15926;51.348;6.596;2023-02-22T13:29:03;10.38;;;7.18;;
28774;SDS011;15926;51.348;6.596;2023-02-22T13:37:38;13.45;;;7.75;;
28774;SDS011;15926;51.348;6.596;2023-02-22T13:52:48;9.93;;;7.05;;
28774;SDS011;15926;51.348;6.596;2023-02-22T13:55:17;15.57;;;7.43;;
28774;SDS011;15926;51.348;6.596;2023-02-22T13:57:45;12.20;;;8.15;;
28774;SDS011;15926;51.348;6.596;2023-02-22T14:11:01;14.80;;;7.88;;
28774;SDS011;15926;51.348;6.596;2023-02-22T14:13:30;13.52;;;7.30;;
28774;SDS011;15926;51.348;6.596;2023-02-22T14:18:44;10.20;;;7.50;;
28774;SDS011;15926;51.348;6.596;2023-02-22T14:21:16;11.77;;;7.35;;
28774;SDS011;15926;51.348;6.596;2023-02-22T14:23:48;11.98;;;8.02;;
28774;SDS011;15926;51.348;6.596;2023-02-22T14:26:27;12.50;;;8.15;;
28774;SDS011;15926;51.348;6.596;2023-02-22T14:29:02;13.77;;;7.03;;
28774;SDS011;15926;51.348;6.596;2023-02-22T14:34:14;12.32;;;7.65;;
28774;SDS011;15926;51.348;6.596;2023-02-22T14:36:51;12.77;;;8.05;;
28774;SDS011;15926;51.348;6.596;2023-02-22T14:39:38;10.52;;;7.35;;
28774;SDS011;15926;51.348;6.596;2023-02-22T14:44:58;17.45;;;10.18;;
28774;SDS011;15926;51.348;6.596;2023-02-22T14:47:35;13.15;;;8.63;;
28774;SDS011;15926;51.348;6.596;2023-02-22T14:50:13;15.50;;;8.63;;
28774;SDS011;15926;51.348;6.596;2023-02-22T14:52:41;12.23;;;7.82;;
28774;SDS011;15926;51.348;6.596;2023-02-22T14:57:45;8.73;;;6.82;;
28774;SDS011;15926;51.348;6.596;2023-02-22T15:02:57;13.18;;;8.23;;
28774;SDS011;15926;51.348;6.596;2023-02-22T15:05:25;10.80;;;7.85;;
28774;SDS011;15926;51.348;6.596;2023-02-22T15:08:02;11.40;;;7.35;;
28774;SDS011;15926;51.348;6.596;2023-02-22T15:10:41;14.57;;;9.27;;
28774;SDS011;15926;51.348;6.596;2023-02-22T15:13:18;11.68;;;8.50;;
28774;SDS011;15926;51.348;6.596;2023-02-22T15:15:45;13.10;;;8.55;;
28774;SDS011;15926;51.348;6.596;2023-02-22T15:18:20;12.02;;;9.23;;
28774;SDS011;15926;51.348;6.596;2023-02-22T15:20:47;12.40;;;7.47;;
28774;SDS011;15926;51.348;6.596;2023-02-22T15:23:20;11.35;;;8.15;;
28774;SDS011;15926;51.348;6.596;2023-02-22T15:25:46;13.00;;;8.48;;
28774;SDS011;15926;51.348;6.596;2023-02-22T15:28:13;13.13;;;8.40;;
28774;SDS011;15926;51.348;6.596;2023-02-22T15:30:40;14.05;;;9.05;;
28774;SDS011;15926;51.348;6.596;2023-02-22T15:33:27;13.20;;;8.73;;
28774;SDS011;15926;51.348;6.596;2023-02-22T15:35:58;9.75;;;8.35;;
28774;SDS011;15926;51.348;6.596;2023-02-22T15:38:26;11.05;;;8.70;;
28774;SDS011;15926;51.348;6.596;2023-02-22T15:41:00;13.85;;;8.65;;
28774;SDS011;15926;51.348;6.596;2023-02-22T15:43:26;14.05;;;8.88;;
28774;SDS011;15926;51.348;6.596;2023-02-22T15:45:53;15.82;;;9.13;;
28774;SDS011;15926;51.348;6.596;2023-02-22T15:48:19;12.90;;;9.45;;
28774;SDS011;15926;51.348;6.596;2023-02-22T15:50:59;13.02;;;8.23;;
28774;SDS011;15926;51.348;6.596;2023-02-22T15:53:39;11.13;;;9.05;;
28774;SDS011;15926;51.348;6.596;2023-02-22T15:56:07;12.82;;;8.93;;
28774;SDS011;15926;51.348;6.596;2023-02-22T15:58:34;15.43;;;9.07;;
28774;SDS011;15926;51.348;6.596;2023-02-22T16:03:29;18.45;;;10.55;;
28774;SDS011;15926;51.348;6.596;2023-02-22T16:06:07;14.90;;;10.45;;
28774;SDS011;15926;51.348;6.596;2023-02-22T16:11:08;16.00;;;9.95;;
28774;SDS011;15926;51.348;6.596;2023-02-22T16:13:37;18.77;;;10.45;;
28774;SDS011;15926;51.348;6.596;2023-02-22T16:16:19;15.10;;;10.55;;
28774;SDS011;15926;51.348;6.596;2023-02-22T16:18:48;13.85;;;10.10;;
28774;SDS011;15926;51.348;6.596;2023-02-22T16:21:16;15.75;;;10.20;;
28774;SDS011;15926;51.348;6.596;2023-02-22T16:23:43;16.52;;;11.32;;
28774;SDS011;15926;51.348;6.596;2023-02-22T16:28:59;17.67;;;10.05;;
28774;SDS011;15926;51.348;6.596;2023-02-22T16:31:27;17.33;;;10.13;;
28774;SDS011;15926;51.348;6.596;2023-02-22T16:33:54;16.73;;;11.20;;
28774;SDS011;15926;51.348;6.596;2023-02-22T16:36:22;16.55;;;10.90;;
28774;SDS011;15926;51.348;6.596;2023-02-22T16:38:48;14.20;;;11.00;;
28774;SDS011;15926;51.348;6.596;2023-02-22T16:41:15;15.98;;;10.60;;
28774;SDS011;15926;51.348;6.596;2023-02-22T16:46:11;14.68;;;11.25;;
28774;SDS011;15926;51.348;6.596;2023-02-22T16:48:37;15.70;;;10.68;;
28774;SDS011;15926;51.348;6.596;2023-02-22T16:51:08;17.23;;;10.13;;
28774;SDS011;15926;51.348;6.596;2023-02-22T16:53:34;16.92;;;11.38;;
28774;SDS011;15926;51.348;6.596;2023-02-22T16:56:02;19.40;;;11.52;;
28774;SDS011;15926;51.348;6.596;2023-02-22T16:58:31;18.27;;;12.73;;
28774;SDS011;15926;51.348;6.596;2023-02-22T17:00:57;17.58;;;10.70;;
28774;SDS011;15926;51.348;6.596;2023-02-22T17:03:24;17.80;;;10.80;;
28774;SDS011;15926;51.348;6.596;2023-02-22T17:05:50;17.52;;;11.55;;
28774;SDS011;15926;51.348;6.596;2023-02-22T17:08:16;18.63;;;12.10;;